sensor_id;sensor_type;location;lat;lon;timestamp;temperature;humidity
19330;DHT22;9799;48.214;16.388;2023-04-03T00:00:05;7.10;99.90
19330;DHT22;9799;48.214;16.388;2023-04-03T00:03:27;7.00;99.90
19330;DHT22;9799;48.214;16.388;2023-04-03T00:06:48;7.10;99.90
19330;DHT22;9799;48.214;16.388;2023-04-03T00:10:10;7.20;99.90
19330;DHT22;9799;48.214;16.388;2023-04-03T00:13:33;7.20;99.90
19330;DHT22;9799;48.214;16.388;2023-04-03T00:16:54;7.30;99.90
19330;DHT22;9799;48.214;16.388;2023-04-03T00:20:16;7.30;99.90
19330;DHT22;9799;48.214;16.388;2023-04-03T00:23:37;7.20;99.90
19330;DHT22;9799;48.214;16.388;2023-04-03T00:26:58;7.20;99.90
19330;DHT22;9799;48.214;16.388;2023-04-03T00:30:21;7.20;99.90
19330;DHT22;9799;48.214;16.388;2023-04-03T00:33:42;7.00;99.90
19330;DHT22;9799;48.214;16.388;2023-04-03T00:37:04;7.00;99.90
19330;DHT22;9799;48.214;16.388;2023-04-03T00:40:26;7.10;99.90
19330;DHT22;9799;48.214;16.388;2023-04-03T00:43:48;7.10;99.90
19330;DHT22;9799;48.214;16.388;2023-04-03T00:47:12;7.10;99.90
19330;DHT22;9799;48.214;16.388;2023-04-03T00:50:36;7.00;99.90
19330;DHT22;9799;48.214;16.388;2023-04-03T00:54:00;7.00;99.90
19330;DHT22;9799;48.214;16.388;2023-04-03T00:57:22;7.10;99.90
19330;DHT22;9799;48.214;16.388;2023-04-03T01:00:48;7.00;99.90
19330;DHT22;9799;48.214;16.388;2023-04-03T01:04:27;6.90;99.90
19330;DHT22;9799;48.214;16.388;2023-04-03T01:07:49;6.90;99.90
19330;DHT22;9799;48.214;16.388;2023-04-03T01:11:12;6.90;99.90
19330;DHT22;9799;48.214;16.388;2023-04-03T01:14:33;6.80;99.90
19330;DHT22;9799;48.214;16.388;2023-04-03T01:17:55;6.80;99.90
19330;DHT22;9799;48.214;16.388;2023-04-03T01:25:24;6.90;99.90
19330;DHT22;9799;48.214;16.388;2023-04-03T01:28:45;7.00;99.90
19330;DHT22;9799;48.214;16.388;2023-04-03T01:32:08;7.00;99.90
19330;DHT22;9799;48.214;16.388;2023-04-03T01:35:29;6.90;99.90
19330;DHT22;9799;48.214;16.388;2023-04-03T01:38:50;6.80;99.90
19330;DHT22;9799;48.214;16.388;2023-04-03T01:42:11;6.90;99.90
19330;DHT22;9799;48.214;16.388;2023-04-03T01:45:33;7.00;99.90
19330;DHT22;9799;48.214;16.388;2023-04-03T01:48:55;6.90;99.90
19330;DHT22;9799;48.214;16.388;2023-04-03T01:52:16;6.90;99.90
19330;DHT22;9799;48.214;16.388;2023-04-03T01:55:37;7.00;99.90
19330;DHT22;9799;48.214;16.388;2023-04-03T01:58:59;7.00;99.90
19330;DHT22;9799;48.214;16.388;2023-04-03T02:02:20;6.90;99.90
19330;DHT22;9799;48.214;16.388;2023-04-03T02:05:42;6.80;99.90
19330;DHT22;9799;48.214;16.388;2023-04-03T02:09:04;6.80;99.90
19330;DHT22;9799;48.214;16.388;2023-04-03T02:12:25;6.80;99.90
19330;DHT22;9799;48.214;16.388;2023-04-03T02:15:47;6.80;99.90
19330;DHT22;9799;48.214;16.388;2023-04-03T02:19:08;6.80;99.90
19330;DHT22;9799;48.214;16.388;2023-04-03T02:22:30;6.70;99.90
19330;DHT22;9799;48.214;16.388;2023-04-03T02:25:52;6.70;99.90
19330;DHT22;9799;48.214;16.388;2023-04-03T02:29:13;6.70;99.90
19330;DHT22;9799;48.214;16.388;2023-04-03T02:32:34;6.70;99.90
19330;DHT22;9799;48.214;16.388;2023-04-03T02:35:56;6.60;99.90
19330;DHT22;9799;48.214;16.388;2023-04-03T02:39:19;6.70;99.90
19330;DHT22;9799;48.214;16.388;2023-04-03T02:42:40;6.60;99.90
19330;DHT22;9799;48.214;16.388;2023-04-03T02:46:01;6.70;99.90
19330;DHT22;9799;48.214;16.388;2023-04-03T02:49:23;6.70;99.90
19330;DHT22;9799;48.214;16.388;2023-04-03T02:52:44;6.80;99.90
19330;DHT22;9799;48.214;16.388;2023-04-03T02:56:07;6.70;99.90
19330;DHT22;9799;48.214;16.388;2023-04-03T02:59:28;6.70;99.90
19330;DHT22;9799;48.214;16.388;2023-04-03T03:02:49;6.60;99.90
19330;DHT22;9799;48.214;16.388;2023-04-03T03:06:12;6.70;99.90
19330;DHT22;9799;48.214;16.388;2023-04-03T03:09:34;6.60;99.90
19330;DHT22;9799;48.214;16.388;2023-04-03T03:12:57;6.80;99.90
19330;DHT22;9799;48.214;16.388;2023-04-03T03:16:18;6.90;99.90
19330;DHT22;9799;48.214;16.388;2023-04-03T03:19:40;6.80;99.90
19330;DHT22;9799;48.214;16.388;2023-04-03T03:23:01;6.70;99.90
19330;DHT22;9799;48.214;16.388;2023-04-03T03:26:22;6.70;99.90
19330;DHT22;9799;48.214;16.388;2023-04-03T03:29:45;6.60;99.90
19330;DHT22;9799;48.214;16.388;2023-04-03T03:33:06;6.70;99.90
19330;DHT22;9799;48.214;16.388;2023-04-03T03:36:27;6.80;99.90
19330;DHT22;9799;48.214;16.388;2023-04-03T03:39:48;6.70;99.90
19330;DHT22;9799;48.214;16.388;2023-04-03T03:43:09;6.60;99.90
19330;DHT22;9799;48.214;16.388;2023-04-03T03:46:32;6.60;99.90
19330;DHT22;9799;48.214;16.388;2023-04-03T03:49:53;6.60;99.90
19330;DHT22;9799;48.214;16.388;2023-04-03T03:53:15;6.70;99.90
19330;DHT22;9799;48.214;16.388;2023-04-03T03:56:36;6.60;99.90
19330;DHT22;9799;48.214;16.388;2023-04-03T03:59:57;6.60;99.90
19330;DHT22;9799;48.214;16.388;2023-04-03T04:03:20;6.60;99.90
19330;DHT22;9799;48.214;16.388;2023-04-03T04:06:41;6.70;99.90
19330;DHT22;9799;48.214;16.388;2023-04-03T04:10:03;6.60;99.90
19330;DHT22;9799;48.214;16.388;2023-04-03T04:13:25;6.70;99.90
19330;DHT22;9799;48.214;16.388;2023-04-03T04:16:46;6.60;99.90
19330;DHT22;9799;48.214;16.388;2023-04-03T04:20:09;6.60;99.90
19330;DHT22;9799;48.214;16.388;2023-04-03T04:23:31;6.50;99.90
19330;DHT22;9799;48.214;16.388;2023-04-03T04:26:52;6.60;99.90
19330;DHT22;9799;48.214;16.388;2023-04-03T04:30:14;6.50;99.90
19330;DHT22;9799;48.214;16.388;2023-04-03T04:33:35;6.60;99.90
19330;DHT22;9799;48.214;16.388;2023-04-03T04:36:57;6.50;99.90
19330;DHT22;9799;48.214;16.388;2023-04-03T04:40:19;6.50;99.90
19330;DHT22;9799;48.214;16.388;2023-04-03T04:43:40;6.50;99.90
19330;DHT22;9799;48.214;16.388;2023-04-03T04:47:01;6.60;99.90
19330;DHT22;9799;48.214;16.388;2023-04-03T04:50:22;6.60;99.90
19330;DHT22;9799;48.214;16.388;2023-04-03T04:53:45;6.50;99.90
19330;DHT22;9799;48.214;16.388;2023-04-03T04:57:06;6.50;99.90
19330;DHT22;9799;48.214;16.388;2023-04-03T05:00:27;6.40;99.90
19330;DHT22;9799;48.214;16.388;2023-04-03T05:03:49;6.30;99.90
19330;DHT22;9799;48.214;16.388;2023-04-03T05:07:10;6.40;99.90
19330;DHT22;9799;48.214;16.388;2023-04-03T05:10:33;6.50;99.90
19330;DHT22;9799;48.214;16.388;2023-04-03T05:13:55;6.50;99.90
19330;DHT22;9799;48.214;16.388;2023-04-03T05:17:16;6.40;99.90
19330;DHT22;9799;48.214;16.388;2023-04-03T05:20:37;6.40;99.90
19330;DHT22;9799;48.214;16.388;2023-04-03T05:23:58;6.50;99.90
19330;DHT22;9799;48.214;16.388;2023-04-03T05:27:23;6.40;99.90
19330;DHT22;9799;48.214;16.388;2023-04-03T05:30:53;6.50;99.90
19330;DHT22;9799;48.214;16.388;2023-04-03T05:34:15;6.40;99.90
19330;DHT22;9799;48.214;16.388;2023-04-03T05:37:36;6.50;99.90
19330;DHT22;9799;48.214;16.388;2023-04-03T05:40:57;6.30;99.90
19330;DHT22;9799;48.214;16.388;2023-04-03T05:44:20;6.20;99.90
19330;DHT22;9799;48.214;16.388;2023-04-03T05:47:41;6.20;99.90
19330;DHT22;9799;48.214;16.388;2023-04-03T05:51:02;6.20;99.90
19330;DHT22;9799;48.214;16.388;2023-04-03T05:54:25;6.30;99.90
19330;DHT22;9799;48.214;16.388;2023-04-03T05:57:46;6.30;99.90
19330;DHT22;9799;48.214;16.388;2023-04-03T06:01:09;6.40;99.90
19330;DHT22;9799;48.214;16.388;2023-04-03T06:04:30;6.30;99.90
19330;DHT22;9799;48.214;16.388;2023-04-03T06:07:51;6.20;99.90
19330;DHT22;9799;48.214;16.388;2023-04-03T06:11:12;6.10;99.90
19330;DHT22;9799;48.214;16.388;2023-04-03T06:14:33;6.20;99.90
19330;DHT22;9799;48.214;16.388;2023-04-03T06:17:56;6.20;99.90
19330;DHT22;9799;48.214;16.388;2023-04-03T06:21:17;6.20;99.90
19330;DHT22;9799;48.214;16.388;2023-04-03T06:24:38;6.10;99.90
19330;DHT22;9799;48.214;16.388;2023-04-03T06:28:00;6.20;99.90
19330;DHT22;9799;48.214;16.388;2023-04-03T06:31:21;6.20;99.90
19330;DHT22;9799;48.214;16.388;2023-04-03T06:34:43;6.20;99.90
19330;DHT22;9799;48.214;16.388;2023-04-03T06:38:06;6.30;99.90
19330;DHT22;9799;48.214;16.388;2023-04-03T06:41:29;6.20;99.90
19330;DHT22;9799;48.214;16.388;2023-04-03T06:44:50;6.20;99.90
19330;DHT22;9799;48.214;16.388;2023-04-03T06:48:12;6.20;99.90
19330;DHT22;9799;48.214;16.388;2023-04-03T06:51:35;6.10;99.90
19330;DHT22;9799;48.214;16.388;2023-04-03T06:54:56;6.10;99.90
19330;DHT22;9799;48.214;16.388;2023-04-03T06:58:19;6.10;99.90
19330;DHT22;9799;48.214;16.388;2023-04-03T07:01:42;6.00;99.90
19330;DHT22;9799;48.214;16.388;2023-04-03T07:05:04;5.90;99.90
19330;DHT22;9799;48.214;16.388;2023-04-03T07:08:27;6.00;99.90
19330;DHT22;9799;48.214;16.388;2023-04-03T07:11:48;5.90;99.90
19330;DHT22;9799;48.214;16.388;2023-04-03T07:15:10;5.90;99.90
19330;DHT22;9799;48.214;16.388;2023-04-03T07:18:33;6.00;99.90
19330;DHT22;9799;48.214;16.388;2023-04-03T07:21:54;6.00;99.90
19330;DHT22;9799;48.214;16.388;2023-04-03T07:25:17;6.10;99.90
19330;DHT22;9799;48.214;16.388;2023-04-03T07:28:38;6.00;99.90
19330;DHT22;9799;48.214;16.388;2023-04-03T07:32:01;6.10;99.90
19330;DHT22;9799;48.214;16.388;2023-04-03T07:35:22;6.40;99.90
19330;DHT22;9799;48.214;16.388;2023-04-03T07:38:43;6.60;99.90
19330;DHT22;9799;48.214;16.388;2023-04-03T07:42:06;6.60;99.90
19330;DHT22;9799;48.214;16.388;2023-04-03T07:45:28;6.70;99.90
19330;DHT22;9799;48.214;16.388;2023-04-03T07:48:49;6.70;99.90
19330;DHT22;9799;48.214;16.388;2023-04-03T07:52:10;6.70;99.90
19330;DHT22;9799;48.214;16.388;2023-04-03T07:55:32;6.80;99.90
19330;DHT22;9799;48.214;16.388;2023-04-03T07:58:55;7.00;99.90
19330;DHT22;9799;48.214;16.388;2023-04-03T08:02:16;7.30;99.90
19330;DHT22;9799;48.214;16.388;2023-04-03T08:05:38;7.40;99.90
19330;DHT22;9799;48.214;16.388;2023-04-03T08:08:59;7.20;99.90
19330;DHT22;9799;48.214;16.388;2023-04-03T08:12:21;7.20;99.90
19330;DHT22;9799;48.214;16.388;2023-04-03T08:15:44;7.30;99.90
19330;DHT22;9799;48.214;16.388;2023-04-03T08:19:06;7.40;99.90
19330;DHT22;9799;48.214;16.388;2023-04-03T08:22:27;7.20;99.90
19330;DHT22;9799;48.214;16.388;2023-04-03T08:25:48;7.20;99.90
19330;DHT22;9799;48.214;16.388;2023-04-03T08:29:11;7.20;99.90
19330;DHT22;9799;48.214;16.388;2023-04-03T08:32:34;7.50;99.90
19330;DHT22;9799;48.214;16.388;2023-04-03T08:35:56;7.60;99.90
19330;DHT22;9799;48.214;16.388;2023-04-03T08:39:17;7.70;99.90
19330;DHT22;9799;48.214;16.388;2023-04-03T08:46:30;7.50;99.90
19330;DHT22;9799;48.214;16.388;2023-04-03T08:49:58;7.70;99.90
19330;DHT22;9799;48.214;16.388;2023-04-03T08:53:23;7.90;99.90
19330;DHT22;9799;48.214;16.388;2023-04-03T08:56:46;7.90;99.90
19330;DHT22;9799;48.214;16.388;2023-04-03T09:00:17;7.80;98.10
19330;DHT22;9799;48.214;16.388;2023-04-03T09:03:39;7.50;98.40
19330;DHT22;9799;48.214;16.388;2023-04-03T09:07:07;7.50;98.10
19330;DHT22;9799;48.214;16.388;2023-04-03T09:10:33;7.30;98.50
19330;DHT22;9799;48.214;16.388;2023-04-03T09:13:59;7.10;98.90
19330;DHT22;9799;48.214;16.388;2023-04-03T09:17:33;7.20;99.00
19330;DHT22;9799;48.214;16.388;2023-04-03T09:21:02;7.10;98.70
19330;DHT22;9799;48.214;16.388;2023-04-03T09:24:27;7.30;98.90
19330;DHT22;9799;48.214;16.388;2023-04-03T09:27:49;8.00;98.00
19330;DHT22;9799;48.214;16.388;2023-04-03T09:31:20;7.80;97.70
19330;DHT22;9799;48.214;16.388;2023-04-03T09:34:42;7.30;97.70
19330;DHT22;9799;48.214;16.388;2023-04-03T09:38:16;7.30;96.10
19330;DHT22;9799;48.214;16.388;2023-04-03T09:41:39;7.40;96.00
19330;DHT22;9799;48.214;16.388;2023-04-03T09:45:01;7.40;95.90
19330;DHT22;9799;48.214;16.388;2023-04-03T09:48:24;7.40;97.00
19330;DHT22;9799;48.214;16.388;2023-04-03T09:51:46;7.30;97.30
19330;DHT22;9799;48.214;16.388;2023-04-03T09:55:10;7.20;97.10
19330;DHT22;9799;48.214;16.388;2023-04-03T09:58:38;7.10;95.70
19330;DHT22;9799;48.214;16.388;2023-04-03T10:02:03;6.90;95.00
19330;DHT22;9799;48.214;16.388;2023-04-03T10:05:32;6.90;94.80
19330;DHT22;9799;48.214;16.388;2023-04-03T10:08:59;7.20;94.40
19330;DHT22;9799;48.214;16.388;2023-04-03T10:12:20;7.10;94.50
19330;DHT22;9799;48.214;16.388;2023-04-03T10:15:46;6.90;94.60
19330;DHT22;9799;48.214;16.388;2023-04-03T10:19:31;6.90;94.60
19330;DHT22;9799;48.214;16.388;2023-04-03T10:23:02;7.00;94.50
19330;DHT22;9799;48.214;16.388;2023-04-03T10:26:32;7.10;93.90
19330;DHT22;9799;48.214;16.388;2023-04-03T10:30:00;7.10;93.60
19330;DHT22;9799;48.214;16.388;2023-04-03T10:33:45;7.10;93.50
19330;DHT22;9799;48.214;16.388;2023-04-03T10:37:16;7.10;93.40
19330;DHT22;9799;48.214;16.388;2023-04-03T10:40:45;7.00;93.00
19330;DHT22;9799;48.214;16.388;2023-04-03T10:44:16;6.90;92.90
19330;DHT22;9799;48.214;16.388;2023-04-03T10:47:48;7.10;91.70
19330;DHT22;9799;48.214;16.388;2023-04-03T10:51:24;7.00;91.40
19330;DHT22;9799;48.214;16.388;2023-04-03T10:54:58;7.40;89.30
19330;DHT22;9799;48.214;16.388;2023-04-03T10:58:26;7.40;89.10
19330;DHT22;9799;48.214;16.388;2023-04-03T11:01:53;7.70;87.80
19330;DHT22;9799;48.214;16.388;2023-04-03T11:05:21;7.60;86.40
19330;DHT22;9799;48.214;16.388;2023-04-03T11:08:51;7.40;87.70
19330;DHT22;9799;48.214;16.388;2023-04-03T11:12:21;7.20;89.30
19330;DHT22;9799;48.214;16.388;2023-04-03T11:15:45;7.10;90.30
19330;DHT22;9799;48.214;16.388;2023-04-03T11:19:11;7.00;90.40
19330;DHT22;9799;48.214;16.388;2023-04-03T11:22:42;6.80;89.80
19330;DHT22;9799;48.214;16.388;2023-04-03T11:26:11;6.60;90.50
19330;DHT22;9799;48.214;16.388;2023-04-03T11:29:36;6.80;90.70
19330;DHT22;9799;48.214;16.388;2023-04-03T11:36:55;7.30;90.00
19330;DHT22;9799;48.214;16.388;2023-04-03T11:40:22;7.30;88.10
19330;DHT22;9799;48.214;16.388;2023-04-03T11:43:58;7.20;88.40
19330;DHT22;9799;48.214;16.388;2023-04-03T11:47:44;7.10;86.80
19330;DHT22;9799;48.214;16.388;2023-04-03T11:54:57;7.00;85.50
19330;DHT22;9799;48.214;16.388;2023-04-03T11:58:19;7.00;84.90
19330;DHT22;9799;48.214;16.388;2023-04-03T12:01:46;7.00;83.90
19330;DHT22;9799;48.214;16.388;2023-04-03T12:05:26;6.90;84.10
19330;DHT22;9799;48.214;16.388;2023-04-03T12:08:49;6.80;82.10
19330;DHT22;9799;48.214;16.388;2023-04-03T12:12:41;6.80;82.00
19330;DHT22;9799;48.214;16.388;2023-04-03T12:16:03;6.70;85.00
19330;DHT22;9799;48.214;16.388;2023-04-03T12:19:31;6.70;84.50
19330;DHT22;9799;48.214;16.388;2023-04-03T12:23:08;6.70;82.30
19330;DHT22;9799;48.214;16.388;2023-04-03T12:26:33;6.80;81.10
19330;DHT22;9799;48.214;16.388;2023-04-03T12:30:05;6.90;80.80
19330;DHT22;9799;48.214;16.388;2023-04-03T12:33:36;6.80;79.90
19330;DHT22;9799;48.214;16.388;2023-04-03T12:37:07;7.00;80.50
19330;DHT22;9799;48.214;16.388;2023-04-03T12:40:41;6.90;80.20
19330;DHT22;9799;48.214;16.388;2023-04-03T12:47:57;6.90;79.90
19330;DHT22;9799;48.214;16.388;2023-04-03T12:51:28;6.90;80.00
19330;DHT22;9799;48.214;16.388;2023-04-03T12:54:52;6.90;78.50
19330;DHT22;9799;48.214;16.388;2023-04-03T12:58:15;7.10;78.90
19330;DHT22;9799;48.214;16.388;2023-04-03T13:01:37;7.30;79.40
19330;DHT22;9799;48.214;16.388;2023-04-03T13:05:06;7.20;78.30
19330;DHT22;9799;48.214;16.388;2023-04-03T13:08:28;7.00;78.80
19330;DHT22;9799;48.214;16.388;2023-04-03T13:11:54;6.80;78.90
19330;DHT22;9799;48.214;16.388;2023-04-03T13:15:21;7.00;78.70
19330;DHT22;9799;48.214;16.388;2023-04-03T13:18:42;7.10;78.50
19330;DHT22;9799;48.214;16.388;2023-04-03T13:22:06;7.30;77.00
19330;DHT22;9799;48.214;16.388;2023-04-03T13:25:31;7.20;77.60
19330;DHT22;9799;48.214;16.388;2023-04-03T13:28:57;7.40;76.70
19330;DHT22;9799;48.214;16.388;2023-04-03T13:32:22;7.10;77.30
19330;DHT22;9799;48.214;16.388;2023-04-03T13:35:44;7.00;78.10
19330;DHT22;9799;48.214;16.388;2023-04-03T13:39:07;6.90;78.40
19330;DHT22;9799;48.214;16.388;2023-04-03T13:42:41;7.00;78.50
19330;DHT22;9799;48.214;16.388;2023-04-03T13:46:20;7.00;78.00
19330;DHT22;9799;48.214;16.388;2023-04-03T13:49:44;7.00;78.80
19330;DHT22;9799;48.214;16.388;2023-04-03T13:53:12;7.00;78.10
19330;DHT22;9799;48.214;16.388;2023-04-03T13:56:35;7.00;79.00
19330;DHT22;9799;48.214;16.388;2023-04-03T13:59:57;7.10;79.30
19330;DHT22;9799;48.214;16.388;2023-04-03T14:03:22;7.00;79.00
19330;DHT22;9799;48.214;16.388;2023-04-03T14:06:43;7.10;77.90
19330;DHT22;9799;48.214;16.388;2023-04-03T14:10:06;7.00;78.40
19330;DHT22;9799;48.214;16.388;2023-04-03T14:13:30;7.20;77.50
19330;DHT22;9799;48.214;16.388;2023-04-03T14:16:54;7.30;77.60
19330;DHT22;9799;48.214;16.388;2023-04-03T14:20:20;7.30;78.30
19330;DHT22;9799;48.214;16.388;2023-04-03T14:23:41;7.40;77.20
19330;DHT22;9799;48.214;16.388;2023-04-03T14:27:02;7.20;77.50
19330;DHT22;9799;48.214;16.388;2023-04-03T14:30:28;7.30;77.40
19330;DHT22;9799;48.214;16.388;2023-04-03T14:33:49;7.30;77.80
19330;DHT22;9799;48.214;16.388;2023-04-03T14:37:14;7.20;77.80
19330;DHT22;9799;48.214;16.388;2023-04-03T14:40:35;7.10;78.60
19330;DHT22;9799;48.214;16.388;2023-04-03T14:43:57;7.10;78.30
19330;DHT22;9799;48.214;16.388;2023-04-03T14:47:20;7.10;79.00
19330;DHT22;9799;48.214;16.388;2023-04-03T14:50:42;7.40;79.40
19330;DHT22;9799;48.214;16.388;2023-04-03T14:54:05;7.40;77.30
19330;DHT22;9799;48.214;16.388;2023-04-03T14:57:29;7.10;75.70
19330;DHT22;9799;48.214;16.388;2023-04-03T15:00:50;7.10;76.80
19330;DHT22;9799;48.214;16.388;2023-04-03T15:04:13;7.00;76.50
19330;DHT22;9799;48.214;16.388;2023-04-03T15:07:36;7.00;75.40
19330;DHT22;9799;48.214;16.388;2023-04-03T15:10:59;7.10;74.60
19330;DHT22;9799;48.214;16.388;2023-04-03T15:14:21;7.10;74.80
19330;DHT22;9799;48.214;16.388;2023-04-03T15:17:43;7.00;75.00
19330;DHT22;9799;48.214;16.388;2023-04-03T15:21:05;7.00;75.20
19330;DHT22;9799;48.214;16.388;2023-04-03T15:24:26;7.00;74.50
19330;DHT22;9799;48.214;16.388;2023-04-03T15:27:49;6.80;75.30
19330;DHT22;9799;48.214;16.388;2023-04-03T15:31:10;7.10;75.30
19330;DHT22;9799;48.214;16.388;2023-04-03T15:34:32;7.00;75.10
19330;DHT22;9799;48.214;16.388;2023-04-03T15:37:53;6.90;75.90
19330;DHT22;9799;48.214;16.388;2023-04-03T15:41:14;6.90;76.80
19330;DHT22;9799;48.214;16.388;2023-04-03T15:44:37;6.70;75.90
19330;DHT22;9799;48.214;16.388;2023-04-03T15:47:58;6.60;76.70
19330;DHT22;9799;48.214;16.388;2023-04-03T15:51:19;6.70;76.40
19330;DHT22;9799;48.214;16.388;2023-04-03T15:54:41;6.80;75.80
19330;DHT22;9799;48.214;16.388;2023-04-03T15:58:02;6.90;75.10
19330;DHT22;9799;48.214;16.388;2023-04-03T16:01:25;6.90;75.50
19330;DHT22;9799;48.214;16.388;2023-04-03T16:04:46;6.90;76.30
19330;DHT22;9799;48.214;16.388;2023-04-03T16:08:08;6.70;76.10
19330;DHT22;9799;48.214;16.388;2023-04-03T16:11:29;6.60;76.50
19330;DHT22;9799;48.214;16.388;2023-04-03T16:14:50;6.70;76.70
19330;DHT22;9799;48.214;16.388;2023-04-03T16:18:13;6.70;75.90
19330;DHT22;9799;48.214;16.388;2023-04-03T16:21:35;6.70;75.30
19330;DHT22;9799;48.214;16.388;2023-04-03T16:24:56;6.40;76.10
19330;DHT22;9799;48.214;16.388;2023-04-03T16:28:18;6.60;76.00
19330;DHT22;9799;48.214;16.388;2023-04-03T16:31:39;6.50;75.10
19330;DHT22;9799;48.214;16.388;2023-04-03T16:35:02;6.40;75.70
19330;DHT22;9799;48.214;16.388;2023-04-03T16:38:23;6.50;76.80
19330;DHT22;9799;48.214;16.388;2023-04-03T16:41:45;6.50;77.70
19330;DHT22;9799;48.214;16.388;2023-04-03T16:45:08;6.40;76.90
19330;DHT22;9799;48.214;16.388;2023-04-03T16:48:30;6.40;76.30
19330;DHT22;9799;48.214;16.388;2023-04-03T16:51:52;6.40;76.70
19330;DHT22;9799;48.214;16.388;2023-04-03T16:55:13;6.40;77.40
19330;DHT22;9799;48.214;16.388;2023-04-03T16:58:35;6.30;76.10
19330;DHT22;9799;48.214;16.388;2023-04-03T17:01:57;6.20;76.30
19330;DHT22;9799;48.214;16.388;2023-04-03T17:05:18;6.30;75.70
19330;DHT22;9799;48.214;16.388;2023-04-03T17:08:40;6.20;75.30
19330;DHT22;9799;48.214;16.388;2023-04-03T17:12:02;6.10;75.60
19330;DHT22;9799;48.214;16.388;2023-04-03T17:15:24;6.10;75.80
19330;DHT22;9799;48.214;16.388;2023-04-03T17:18:45;6.20;75.70
19330;DHT22;9799;48.214;16.388;2023-04-03T17:22:08;6.20;75.90
19330;DHT22;9799;48.214;16.388;2023-04-03T17:25:32;6.10;76.30
19330;DHT22;9799;48.214;16.388;2023-04-03T17:28:53;6.00;77.00
19330;DHT22;9799;48.214;16.388;2023-04-03T17:32:16;6.00;76.90
19330;DHT22;9799;48.214;16.388;2023-04-03T17:35:38;6.10;76.40
19330;DHT22;9799;48.214;16.388;2023-04-03T17:39:00;6.00;76.20
19330;DHT22;9799;48.214;16.388;2023-04-03T17:42:23;6.10;76.20
19330;DHT22;9799;48.214;16.388;2023-04-03T17:45:44;6.00;75.70
19330;DHT22;9799;48.214;16.388;2023-04-03T17:49:07;6.10;76.00
19330;DHT22;9799;48.214;16.388;2023-04-03T17:52:29;6.10;76.50
19330;DHT22;9799;48.214;16.388;2023-04-03T17:55:50;6.00;77.10
19330;DHT22;9799;48.214;16.388;2023-04-03T17:59:14;6.10;77.30
19330;DHT22;9799;48.214;16.388;2023-04-03T18:02:36;6.10;77.20
19330;DHT22;9799;48.214;16.388;2023-04-03T18:05:58;6.00;77.00
19330;DHT22;9799;48.214;16.388;2023-04-03T18:09:27;6.00;77.60
19330;DHT22;9799;48.214;16.388;2023-04-03T18:12:50;6.00;77.30
19330;DHT22;9799;48.214;16.388;2023-04-03T18:16:14;5.90;77.60
19330;DHT22;9799;48.214;16.388;2023-04-03T18:19:36;6.00;77.10
19330;DHT22;9799;48.214;16.388;2023-04-03T18:22:58;6.00;77.10
19330;DHT22;9799;48.214;16.388;2023-04-03T18:26:21;6.10;76.70
19330;DHT22;9799;48.214;16.388;2023-04-03T18:29:49;5.90;77.00
19330;DHT22;9799;48.214;16.388;2023-04-03T18:33:13;5.80;77.50
19330;DHT22;9799;48.214;16.388;2023-04-03T18:36:36;5.90;77.20
19330;DHT22;9799;48.214;16.388;2023-04-03T18:39:58;5.90;77.40
19330;DHT22;9799;48.214;16.388;2023-04-03T18:43:22;5.90;77.40
19330;DHT22;9799;48.214;16.388;2023-04-03T18:46:46;6.00;77.40
19330;DHT22;9799;48.214;16.388;2023-04-03T18:50:10;5.90;77.60
19330;DHT22;9799;48.214;16.388;2023-04-03T18:53:32;5.80;77.50
19330;DHT22;9799;48.214;16.388;2023-04-03T18:56:54;5.70;78.20
19330;DHT22;9799;48.214;16.388;2023-04-03T19:00:18;5.70;78.20
19330;DHT22;9799;48.214;16.388;2023-04-03T19:03:40;5.60;78.70
19330;DHT22;9799;48.214;16.388;2023-04-03T19:07:06;5.70;78.80
19330;DHT22;9799;48.214;16.388;2023-04-03T19:10:29;5.70;79.10
19330;DHT22;9799;48.214;16.388;2023-04-03T19:13:51;5.70;78.90
19330;DHT22;9799;48.214;16.388;2023-04-03T19:17:14;5.70;79.20
19330;DHT22;9799;48.214;16.388;2023-04-03T19:20:36;5.70;79.10
19330;DHT22;9799;48.214;16.388;2023-04-03T19:24:00;5.80;79.00
19330;DHT22;9799;48.214;16.388;2023-04-03T19:27:22;5.80;78.60
19330;DHT22;9799;48.214;16.388;2023-04-03T19:30:45;5.90;79.00
19330;DHT22;9799;48.214;16.388;2023-04-03T19:34:10;5.50;78.40
19330;DHT22;9799;48.214;16.388;2023-04-03T19:37:32;5.60;78.40
19330;DHT22;9799;48.214;16.388;2023-04-03T19:40:55;5.70;78.30
19330;DHT22;9799;48.214;16.388;2023-04-03T19:44:18;5.80;78.10
19330;DHT22;9799;48.214;16.388;2023-04-03T19:47:41;5.70;78.00
19330;DHT22;9799;48.214;16.388;2023-04-03T19:51:03;5.50;77.90
19330;DHT22;9799;48.214;16.388;2023-04-03T19:54:30;5.50;78.40
19330;DHT22;9799;48.214;16.388;2023-04-03T19:57:54;5.50;78.50
19330;DHT22;9799;48.214;16.388;2023-04-03T20:01:17;5.50;79.00
19330;DHT22;9799;48.214;16.388;2023-04-03T20:04:39;5.50;78.70
19330;DHT22;9799;48.214;16.388;2023-04-03T20:08:01;5.50;79.00
19330;DHT22;9799;48.214;16.388;2023-04-03T20:11:23;5.60;78.40
19330;DHT22;9799;48.214;16.388;2023-04-03T20:14:47;5.60;79.10
19330;DHT22;9799;48.214;16.388;2023-04-03T20:18:10;5.50;79.10
19330;DHT22;9799;48.214;16.388;2023-04-03T20:21:36;5.50;79.10
19330;DHT22;9799;48.214;16.388;2023-04-03T20:25:01;5.60;79.50
19330;DHT22;9799;48.214;16.388;2023-04-03T20:28:23;5.50;79.60
19330;DHT22;9799;48.214;16.388;2023-04-03T20:31:45;5.40;79.00
19330;DHT22;9799;48.214;16.388;2023-04-03T20:35:07;5.50;79.90
19330;DHT22;9799;48.214;16.388;2023-04-03T20:38:29;5.40;79.40
19330;DHT22;9799;48.214;16.388;2023-04-03T20:41:50;5.40;79.40
19330;DHT22;9799;48.214;16.388;2023-04-03T20:45:11;5.50;79.50
19330;DHT22;9799;48.214;16.388;2023-04-03T20:48:34;5.40;78.90
19330;DHT22;9799;48.214;16.388;2023-04-03T20:51:56;5.40;79.00
19330;DHT22;9799;48.214;16.388;2023-04-03T20:55:17;5.40;78.90
19330;DHT22;9799;48.214;16.388;2023-04-03T20:58:40;5.30;78.60
19330;DHT22;9799;48.214;16.388;2023-04-03T21:02:02;5.40;79.10
19330;DHT22;9799;48.214;16.388;2023-04-03T21:05:26;5.40;79.10
19330;DHT22;9799;48.214;16.388;2023-04-03T21:20:08;5.30;79.10
19330;DHT22;9799;48.214;16.388;2023-04-03T21:23:30;5.40;79.20
19330;DHT22;9799;48.214;16.388;2023-04-03T21:26:52;5.30;79.20
19330;DHT22;9799;48.214;16.388;2023-04-03T21:30:13;5.30;79.50
19330;DHT22;9799;48.214;16.388;2023-04-03T21:33:35;5.20;79.20
19330;DHT22;9799;48.214;16.388;2023-04-03T21:37:00;5.20;79.50
19330;DHT22;9799;48.214;16.388;2023-04-03T21:40:22;5.10;79.60
19330;DHT22;9799;48.214;16.388;2023-04-03T21:43:44;5.10;80.00
19330;DHT22;9799;48.214;16.388;2023-04-03T21:47:06;5.10;79.90
19330;DHT22;9799;48.214;16.388;2023-04-03T21:50:27;5.10;80.40
19330;DHT22;9799;48.214;16.388;2023-04-03T21:53:52;5.00;80.30
19330;DHT22;9799;48.214;16.388;2023-04-03T21:57:13;4.80;80.70
19330;DHT22;9799;48.214;16.388;2023-04-03T22:00:34;4.90;80.00
19330;DHT22;9799;48.214;16.388;2023-04-03T22:03:57;4.90;81.10
19330;DHT22;9799;48.214;16.388;2023-04-03T22:07:18;4.90;80.60
19330;DHT22;9799;48.214;16.388;2023-04-03T22:10:40;4.90;80.50
19330;DHT22;9799;48.214;16.388;2023-04-03T22:14:02;4.80;81.10